Time;durP1;ratioP1;P1;durP2;ratioP2;P2;SDS_P1;SDS_P2;PMS_P1;PMS_P2;Temp;Humidity;BMP_temperature;BMP_pressure;BME280_temperature;BME280_humidity;BME280_pressure;Samples;Min_cycle;Max_cycle;Signal;HPM_P1;HPM_P2
2021/12/14 00:02:18;;;;;;;27.08;20.10;;;;;;;8.23;100.00;102423.78;4819066;28;20117;-73
2021/12/14 00:04:44;;;;;;;26.65;20.52;;;;;;;8.22;100.00;102427.50;4807877;28;20043;-72
2021/12/14 00:07:13;;;;;;;31.33;20.15;;;;;;;8.22;100.00;102428.31;4792104;29;21017;-71
2021/12/14 00:09:41;;;;;;;27.02;20.25;;;;;;;8.20;100.00;102441.06;4828146;28;20050;-72
2021/12/14 00:15:04;;;;;;;31.77;20.98;;;;;;;8.25;100.00;102435.19;4818725;28;20058;-72
2021/12/14 00:17:35;;;;;;;30.90;21.25;;;;;;;8.17;100.00;102430.63;4817122;29;20121;-72
2021/12/14 00:20:07;;;;;;;28.17;19.73;;;;;;;8.20;100.00;102430.31;4810770;28;20048;-72
2021/12/14 00:24:06;;;;;;;28.02;19.10;;;;;;;8.24;100.00;102429.00;4786109;28;28159;-72
2021/12/14 00:25:26;;;;;;;25.67;19.55;;;;;;;8.14;100.00;102441.69;4830607;28;20155;-72
2021/12/14 00:27:52;;;;;;;27.95;19.92;;;;;;;8.10;100.00;102451.06;4816980;28;20066;-72
2021/12/14 00:30:17;;;;;;;24.42;19.83;;;;;;;8.11;100.00;102452.75;4796679;28;20038;-72
2021/12/14 00:32:43;;;;;;;27.30;19.80;;;;;;;8.08;100.00;102463.81;4825020;28;20058;-72
2021/12/14 00:35:12;;;;;;;30.38;21.17;;;;;;;8.10;100.00;102469.84;4804600;29;20444;-72
2021/12/14 00:37:41;;;;;;;33.17;19.92;;;;;;;8.10;100.00;102461.78;4829444;28;20039;-72
2021/12/14 00:40:15;;;;;;;27.23;19.38;;;;;;;8.09;100.00;102465.47;4799740;29;20062;-72
2021/12/14 00:42:40;;;;;;;28.17;20.27;;;;;;;8.10;100.00;102461.78;4813864;29;20043;-72
2021/12/14 00:45:08;;;;;;;25.55;19.15;;;;;;;8.18;100.00;102463.69;4825064;28;20102;-72
2021/12/14 00:47:34;;;;;;;29.02;18.73;;;;;;;8.12;100.00;102454.44;4800401;28;20065;-72
2021/12/14 00:49:59;;;;;;;24.33;17.65;;;;;;;8.13;100.00;102448.06;4830932;28;20032;-72
2021/12/14 00:52:25;;;;;;;28.40;18.27;;;;;;;8.14;100.00;102457.78;4800936;29;21284;-72
2021/12/14 00:54:50;;;;;;;26.45;17.42;;;;;;;8.08;100.00;102458.44;4812855;28;20032;-72
2021/12/14 00:57:16;;;;;;;28.02;18.38;;;;;;;8.14;100.00;102452.41;4831702;28;20067;-72
2021/12/14 00:59:41;;;;;;;23.65;16.88;;;;;;;8.17;100.00;102446.72;4818325;28;20059;-71
2021/12/14 01:02:13;;;;;;;24.90;17.65;;;;;;;8.17;100.00;102441.38;4796527;28;20114;-72
2021/12/14 01:04:48;;;;;;;26.63;17.05;;;;;;;8.16;100.00;102439.69;4809421;29;20050;-72
2021/12/14 01:07:16;;;;;;;24.98;17.80;;;;;;;8.17;100.00;102436.00;4801858;29;20082;-73
2021/12/14 01:09:45;;;;;;;23.33;17.05;;;;;;;8.15;100.00;102438.00;4832609;28;26230;-72
2021/12/14 01:12:19;;;;;;;23.63;16.65;;;;;;;8.14;100.00;102428.25;4802765;29;20051;-73
2021/12/14 01:14:59;;;;;;;22.83;16.48;;;;;;;8.16;100.00;102423.59;4831898;28;20211;-72
2021/12/14 01:17:28;;;;;;;23.52;17.15;;;;;;;8.17;100.00;102422.56;4810115;28;20031;-73
2021/12/14 01:20:00;;;;;;;24.48;16.85;;;;;;;8.21;100.00;102410.50;4789721;29;20055;-72
2021/12/14 01:22:42;;;;;;;20.40;16.63;;;;;;;8.22;100.00;102409.53;4830239;28;20039;-72
2021/12/14 01:25:10;;;;;;;25.52;16.40;;;;;;;8.20;100.00;102414.22;4785377;29;22359;-72
2021/12/14 01:27:56;;;;;;;20.35;15.57;;;;;;;8.21;100.00;102410.50;4829855;28;20047;-72
2021/12/14 01:30:48;;;;;;;26.40;17.73;;;;;;;8.16;100.00;102410.16;4805991;28;20031;-73
2021/12/14 01:33:15;;;;;;;23.42;17.05;;;;;;;8.24;100.00;102399.47;4824156;28;20186;-72
2021/12/14 01:35:44;;;;;;;24.77;17.15;;;;;;;8.20;100.00;102397.25;4833131;28;20045;-72
2021/12/14 01:38:32;;;;;;;25.13;16.90;;;;;;;8.21;100.00;102398.94;4815859;28;23894;-72
2021/12/14 01:41:05;;;;;;;24.73;16.98;;;;;;;8.18;100.00;102400.13;4834932;28;20046;-71
2021/12/14 01:43:53;;;;;;;24.38;18.00;;;;;;;8.17;100.00;102403.78;4813701;28;20039;-72
2021/12/14 01:46:25;;;;;;;35.20;19.13;;;;;;;8.15;100.00;102416.53;4807319;28;20071;-72
2021/12/14 01:48:51;;;;;;;23.40;16.92;;;;;;;8.13;100.00;102418.53;4814203;29;20062;-72
2021/12/14 01:51:17;;;;;;;21.90;17.42;;;;;;;8.15;100.00;102411.16;4799329;28;20121;-72
2021/12/14 01:53:46;;;;;;;26.20;18.58;;;;;;;8.24;100.00;102414.72;4800399;29;20054;-72
2021/12/14 01:56:15;;;;;;;26.15;18.75;;;;;;;8.21;100.00;102413.19;4809219;28;20261;-72
2021/12/14 01:58:47;;;;;;;26.05;18.73;;;;;;;8.21;100.00;102426.63;4824322;28;20129;-72
2021/12/14 02:01:20;;;;;;;25.27;18.52;;;;;;;8.24;100.00;102415.56;4833167;28;20036;-72
2021/12/14 02:04:11;;;;;;;26.75;18.48;;;;;;;8.22;100.00;102414.91;4789137;29;20046;-72
2021/12/14 02:06:36;;;;;;;23.60;17.33;;;;;;;8.21;100.00;102415.88;4838228;28;20039;-71
2021/12/14 02:09:16;;;;;;;22.70;18.05;;;;;;;8.22;100.00;102408.69;4814004;28;20978;-71
2021/12/14 02:11:47;;;;;;;25.30;19.23;;;;;;;8.16;100.00;102410.16;4826774;28;20124;-72
2021/12/14 02:14:12;;;;;;;27.45;18.55;;;;;;;8.20;100.00;102406.16;4818362;29;20171;-72
2021/12/14 02:16:38;;;;;;;26.50;19.15;;;;;;;8.19;100.00;102412.53;4821711;28;20399;-71
2021/12/14 02:19:09;;;;;;;26.58;18.65;;;;;;;8.26;100.00;102405.53;4832255;28;24320;-74
2021/12/14 02:21:35;;;;;;;29.50;20.25;;;;;;;8.20;100.00;102416.06;4833268;28;20039;-72
2021/12/14 02:24:02;;;;;;;27.23;19.38;;;;;;;8.17;100.00;102419.88;4819757;28;24335;-72
2021/12/14 02:26:30;;;;;;;25.67;19.50;;;;;;;8.15;100.00;102416.53;4800259;29;20215;-73
2021/12/14 02:28:58;;;;;;;28.05;21.00;;;;;;;8.08;100.00;102413.66;4833053;29;20047;-73
2021/12/14 02:31:25;;;;;;;32.58;21.33;;;;;;;8.13;100.00;102416.69;4825007;28;20054;-73
2021/12/14 02:33:52;;;;;;;29.88;22.90;;;;;;;8.13;100.00;102413.16;4818373;29;20062;-73
2021/12/14 02:36:23;;;;;;;32.00;23.83;;;;;;;8.10;100.00;102411.63;4817956;28;21150;-72
2021/12/14 02:38:53;;;;;;;31.90;24.25;;;;;;;8.09;100.00;102411.78;4829840;28;20035;-72
2021/12/14 02:41:19;;;;;;;33.92;25.23;;;;;;;8.07;100.00;102408.41;4828765;28;20115;-73
2021/12/14 02:43:48;;;;;;;42.85;25.83;;;;;;;8.00;100.00;102404.69;4818282;28;20047;-71
2021/12/14 02:46:19;;;;;;;37.47;26.63;;;;;;;7.93;100.00;102409.84;4833304;28;20047;-71
2021/12/14 02:48:47;;;;;;;40.60;26.15;;;;;;;7.91;100.00;102413.69;4825435;28;20051;-73
2021/12/14 02:51:25;;;;;;;36.17;26.55;;;;;;;7.85;100.00;102415.16;4829642;28;20170;-74
2021/12/14 02:53:54;;;;;;;39.97;27.90;;;;;;;7.85;100.00;102416.00;4813849;29;20558;-72
2021/12/14 02:56:24;;;;;;;37.47;27.85;;;;;;;7.86;100.00;102406.09;4819442;28;20047;-72
2021/12/14 02:58:55;;;;;;;37.70;27.73;;;;;;;7.91;100.00;102405.66;4816508;29;20180;-71
2021/12/14 03:01:21;;;;;;;38.60;27.45;;;;;;;7.93;100.00;102400.94;4829805;28;20054;-71
2021/12/14 03:03:47;;;;;;;38.00;28.85;;;;;;;7.92;100.00;102401.94;4824492;29;21194;-71
2021/12/14 03:06:18;;;;;;;37.72;26.38;;;;;;;7.93;100.00;102392.91;4836964;29;20036;-72
2021/12/14 03:08:45;;;;;;;40.17;27.88;;;;;;;7.95;100.00;102394.44;4823717;28;20047;-74
2021/12/14 03:11:13;;;;;;;40.67;28.65;;;;;;;7.98;100.00;102387.91;4815631;29;20041;-74
2021/12/14 03:13:45;;;;;;;42.42;27.58;;;;;;;7.94;100.00;102391.91;4835965;28;20035;-74
2021/12/14 03:16:17;;;;;;;42.92;27.90;;;;;;;7.91;100.00;102386.88;4808237;28;20097;-74
2021/12/14 03:18:47;;;;;;;41.03;28.58;;;;;;;7.84;100.00;102392.84;4838328;29;20047;-72
2021/12/14 03:21:19;;;;;;;40.60;29.60;;;;;;;7.84;100.00;102387.47;4821612;28;20586;-73
2021/12/14 03:23:53;;;;;;;40.38;29.27;;;;;;;7.83;100.00;102385.81;4839071;28;20993;-72
2021/12/14 03:26:23;;;;;;;38.70;28.75;;;;;;;7.82;100.00;102386.78;4819544;28;20039;-73
2021/12/14 03:28:52;;;;;;;47.55;32.28;;;;;;;7.84;100.00;102392.00;4821756;28;20050;-74
2021/12/14 03:31:37;;;;;;;42.88;29.88;;;;;;;7.86;100.00;102384.63;4816543;29;20039;-74
2021/12/14 03:34:10;;;;;;;42.63;29.30;;;;;;;7.84;100.00;102374.06;4811351;29;20051;-74
2021/12/14 03:36:50;;;;;;;40.28;28.80;;;;;;;7.87;100.00;102379.13;4819793;29;20113;-74
2021/12/14 03:39:20;;;;;;;37.80;27.25;;;;;;;7.85;100.00;102378.44;4837944;29;20044;-74
2021/12/14 03:41:51;;;;;;;45.45;29.92;;;;;;;7.85;100.00;102375.75;4824427;28;20062;-72
2021/12/14 03:44:33;;;;;;;42.50;30.05;;;;;;;7.82;100.00;102370.69;4835203;29;20170;-73
2021/12/14 03:47:14;;;;;;;45.22;30.58;;;;;;;7.81;100.00;102376.22;4802450;29;20059;-73
2021/12/14 03:49:47;;;;;;;45.22;31.77;;;;;;;7.84;100.00;102376.75;4837761;29;20075;-72
2021/12/14 03:52:16;;;;;;;42.38;31.92;;;;;;;7.83;100.00;102380.44;4818386;29;20042;-72
2021/12/14 03:54:42;;;;;;;47.97;32.30;;;;;;;7.76;100.00;102374.03;4809005;29;20150;-73
2021/12/14 03:57:08;;;;;;;48.53;32.75;;;;;;;7.79;100.00;102375.53;4833821;28;20638;-72
2021/12/14 03:59:34;;;;;;;44.90;31.88;;;;;;;7.81;100.00;102376.22;4794644;29;20047;-72
2021/12/14 04:02:03;;;;;;;46.67;32.03;;;;;;;7.79;100.00;102380.88;4834925;28;20055;-72
2021/12/14 04:04:36;;;;;;;45.55;31.02;;;;;;;7.79;100.00;102368.34;4836160;28;20031;-72
2021/12/14 04:07:05;;;;;;;41.95;28.90;;;;;;;7.79;100.00;102360.31;4806981;29;20047;-72
2021/12/14 04:09:33;;;;;;;52.28;31.83;;;;;;;7.74;100.00;102370.66;4835752;29;20138;-72
2021/12/14 04:11:59;;;;;;;48.78;32.17;;;;;;;7.76;100.00;102374.03;4832439;29;20039;-74
2021/12/14 04:14:29;;;;;;;45.17;31.30;;;;;;;7.73;100.00;102373.50;4810576;29;20143;-73
2021/12/14 04:16:56;;;;;;;51.13;32.55;;;;;;;7.73;100.00;102368.13;4807081;28;20179;-73
2021/12/14 04:19:23;;;;;;;48.85;32.92;;;;;;;7.78;100.00;102377.38;4811162;29;20051;-72
2021/12/14 04:21:50;;;;;;;48.25;33.67;;;;;;;7.79;100.00;102379.09;4823774;29;20054;-73
2021/12/14 04:24:22;;;;;;;46.45;32.30;;;;;;;7.79;100.00;102371.03;4825888;29;20038;-72
2021/12/14 04:26:48;;;;;;;47.13;32.70;;;;;;;7.81;100.00;102366.34;4811784;29;20702;-73
2021/12/14 04:29:14;;;;;;;43.60;31.73;;;;;;;7.79;100.00;102373.72;4823204;29;20038;-72
2021/12/14 04:31:42;;;;;;;42.92;30.98;;;;;;;7.79;100.00;102373.72;4833807;29;20158;-73
2021/12/14 04:34:08;;;;;;;46.85;31.20;;;;;;;7.82;100.00;102378.75;4812405;29;20082;-73
2021/12/14 04:36:34;;;;;;;44.45;31.48;;;;;;;7.84;100.00;102373.22;4817274;28;20054;-73
2021/12/14 04:39:30;;;;;;;50.22;33.30;;;;;;;7.77;100.00;102367.66;4825666;29;20059;-73
2021/12/14 04:53:30;;;;;;;52.40;30.98;;;;;;;7.91;100.00;102363.56;4829175;29;20071;-73
2021/12/14 04:56:00;;;;;;;48.00;31.52;;;;;;;7.93;100.00;102358.00;4823205;29;20031;-73
2021/12/14 04:58:35;;;;;;;48.88;32.90;;;;;;;7.91;100.00;102360.03;4804839;29;24878;-72
2021/12/14 05:01:03;;;;;;;54.20;32.75;;;;;;;7.94;100.00;102362.41;4822147;29;20047;-72
2021/12/14 05:03:47;;;;;;;49.88;32.30;;;;;;;7.94;100.00;102371.28;4831988;28;20129;-73
2021/12/14 05:06:18;;;;;;;46.25;31.48;;;;;;;7.96;100.00;102374.63;4823477;29;20055;-72
2021/12/14 05:11:22;;;;;;;47.28;33.15;;;;;;;7.99;100.00;102377.00;4818222;28;20051;-73
2021/12/14 05:13:53;;;;;;;51.30;32.00;;;;;;;7.97;100.00;102365.63;4813789;29;20042;-73
2021/12/14 05:16:21;;;;;;;42.97;30.60;;;;;;;7.99;100.00;102368.13;4809773;28;20058;-73
2021/12/14 05:18:50;;;;;;;47.90;32.80;;;;;;;7.92;100.00;102357.19;4806378;29;20086;-73
2021/12/14 05:21:27;;;;;;;44.47;31.35;;;;;;;7.85;100.00;102361.50;4834427;29;20043;-73
2021/12/14 05:23:58;;;;;;;46.17;32.00;;;;;;;7.84;100.00;102357.97;4822140;28;20515;-73
2021/12/14 05:26:23;;;;;;;53.13;34.47;;;;;;;7.85;100.00;102361.50;4831733;29;20046;-73
2021/12/14 05:28:49;;;;;;;47.95;33.72;;;;;;;7.82;100.00;102359.97;4834750;29;20173;-74
2021/12/14 05:31:16;;;;;;;47.95;33.17;;;;;;;7.84;100.00;102366.03;4819624;28;20055;-72
2021/12/14 05:33:42;;;;;;;47.90;32.95;;;;;;;7.88;100.00;102364.69;4832215;29;20054;-72
2021/12/14 05:36:12;;;;;;;51.70;34.25;;;;;;;7.96;100.00;102379.16;4813508;29;20051;-72
2021/12/14 05:38:56;;;;;;;48.65;33.47;;;;;;;7.96;100.00;102376.47;4804378;29;20059;-72
2021/12/14 05:44:09;;;;;;;47.40;33.08;;;;;;;7.94;100.00;102391.91;4818683;28;19926;-74
2021/12/14 05:46:35;;;;;;;51.38;34.80;;;;;;;7.88;100.00;102390.69;4833776;29;20154;-73
2021/12/14 05:49:06;;;;;;;53.00;37.55;;;;;;;7.92;100.00;102401.94;4794019;29;20163;-71
2021/12/14 05:51:32;;;;;;;55.13;35.38;;;;;;;7.87;100.00;102403.28;4822798;28;20075;-72
2021/12/14 05:53:59;;;;;;;52.78;35.45;;;;;;;7.91;100.00;102397.59;4797905;29;20118;-73
2021/12/14 05:56:26;;;;;;;54.53;34.10;;;;;;;7.88;100.00;102394.22;4802176;29;20071;-73
2021/12/14 05:58:53;;;;;;;55.55;37.33;;;;;;;7.86;100.00;102385.50;4831498;29;20031;-72
2021/12/14 06:01:27;;;;;;;54.67;36.10;;;;;;;7.90;100.00;102386.03;4831492;29;20118;-72
2021/12/14 06:03:57;;;;;;;;;;;;;;;7.87;100.00;102392.53;4803631;28;20054;-72
2021/12/14 06:06:25;;;;;;;56.75;37.45;;;;;;;7.80;100.00;102388.81;4832375;28;19922;-73
2021/12/14 06:09:19;;;;;;;60.50;37.55;;;;;;;7.81;100.00;102398.53;4812100;29;20062;-72
2021/12/14 06:11:48;;;;;;;59.45;37.92;;;;;;;7.79;100.00;102395.19;4833387;29;20159;-72
2021/12/14 06:14:19;;;;;;;58.30;37.85;;;;;;;7.78;100.00;102393.47;4834464;29;20147;-73
2021/12/14 06:16:47;;;;;;;61.65;39.53;;;;;;;7.80;100.00;102407.56;4821729;29;20159;-73
2021/12/14 06:19:19;;;;;;;59.58;39.72;;;;;;;7.80;100.00;102402.22;4816694;29;20028;-73
2021/12/14 06:21:48;;;;;;;66.70;41.38;;;;;;;7.77;100.00;102402.53;4831765;29;20066;-73
2021/12/14 06:24:14;;;;;;;66.30;40.85;;;;;;;7.75;100.00;102407.19;4824384;28;20051;-73
2021/12/14 06:26:51;;;;;;;62.10;41.95;;;;;;;7.73;100.00;102406.53;4819195;29;20113;-73
2021/12/14 06:29:20;;;;;;;65.30;41.20;;;;;;;7.82;100.00;102418.97;4802105;29;24083;-72
2021/12/14 06:31:46;;;;;;;66.95;41.65;;;;;;;7.83;100.00;102407.28;4835724;28;24342;-73
2021/12/14 06:34:22;;;;;;;63.00;40.95;;;;;;;7.87;100.00;102408.63;4810756;29;20086;-72
2021/12/14 06:36:49;;;;;;;66.10;41.55;;;;;;;7.88;100.00;102409.47;4828204;29;20106;-72
2021/12/14 06:39:15;;;;;;;62.28;39.65;;;;;;;7.89;100.00;102414.66;4836695;29;20250;-73
2021/12/14 06:41:40;;;;;;;58.10;40.83;;;;;;;7.92;100.00;102410.00;4790743;29;20066;-73
2021/12/14 06:44:06;;;;;;;59.33;40.72;;;;;;;7.94;100.00;102411.53;4801356;29;20220;-74
2021/12/14 06:46:35;;;;;;;65.10;40.85;;;;;;;7.94;100.00;102418.75;4817255;29;20150;-74
2021/12/14 06:49:00;;;;;;;63.25;40.97;;;;;;;7.94;100.00;102421.44;4825518;29;20071;-73
2021/12/14 06:51:32;;;;;;;57.90;40.45;;;;;;;7.95;100.00;102421.25;4820500;29;20042;-73
2021/12/14 06:53:59;;;;;;;63.38;41.92;;;;;;;7.97;100.00;102427.31;4814663;29;20082;-74
2021/12/14 06:56:28;;;;;;;62.05;40.90;;;;;;;7.93;100.00;102433.16;4829788;29;20609;-74
2021/12/14 06:58:56;;;;;;;62.80;42.13;;;;;;;7.95;100.00;102431.16;4836914;29;20031;-73
2021/12/14 07:01:25;;;;;;;66.13;41.90;;;;;;;7.91;100.00;102435.16;4822131;28;20051;-73
2021/12/14 07:04:02;;;;;;;67.57;44.30;;;;;;;7.94;100.00;102424.13;4821039;29;20089;-73
2021/12/14 07:07:05;;;;;;;65.53;41.45;;;;;;;7.94;100.00;102416.06;4832553;28;20051;-73
2021/12/14 07:09:38;;;;;;;61.92;42.10;;;;;;;7.93;100.00;102417.03;4798148;29;20961;-73
2021/12/14 07:12:17;;;;;;;63.38;42.65;;;;;;;7.94;100.00;102419.59;4835814;29;20031;-74
2021/12/14 07:15:21;;;;;;;64.93;44.42;;;;;;;7.92;100.00;102421.56;4823420;28;20052;-73
2021/12/14 07:18:01;;;;;;;;;;;;;;;7.92;100.00;102421.56;4836972;29;20090;-73
2021/12/14 07:20:46;;;;;;;67.50;42.88;;;;;;;7.94;100.00;102429.50;4820048;29;20158;-73
2021/12/14 07:23:21;;;;;;;66.70;44.67;;;;;;;7.94;100.00;102433.00;4835096;29;20040;-73
2021/12/14 07:25:55;;;;;;;66.78;42.97;;;;;;;7.93;100.00;102439.34;4830695;29;21085;-73
2021/12/14 07:28:21;;;;;;;71.13;45.67;;;;;;;7.88;100.00;102429.09;4807563;29;20222;-74
2021/12/14 07:30:51;;;;;;;70.72;46.47;;;;;;;7.87;100.00;102438.16;4816149;29;20019;-73
2021/12/14 07:33:47;;;;;;;75.32;48.10;;;;;;;7.81;100.00;102451.34;4799457;29;23691;-73
2021/12/14 07:36:21;;;;;;;75.57;47.20;;;;;;;7.79;100.00;102447.97;4829716;28;20066;-73
2021/12/14 07:38:50;;;;;;;;;;;;;;;7.75;100.00;102447.44;4825514;29;20098;-72
2021/12/14 07:41:30;;;;;;;74.93;47.08;;;;;;;7.77;100.00;102445.44;4804596;29;19926;-72
2021/12/14 07:44:05;;;;;;;79.82;48.80;;;;;;;7.78;100.00;102462.38;4813012;29;20063;-71
2021/12/14 07:46:41;;;;;;;81.70;47.88;;;;;;;7.78;100.00;102455.16;4801935;29;22365;-71
2021/12/14 07:49:10;;;;;;;79.75;50.67;;;;;;;7.78;100.00;102468.59;4819085;29;20031;-71
2021/12/14 07:51:40;;;;;;;82.63;51.92;;;;;;;7.82;100.00;102467.28;4810570;28;20185;-73
2021/12/14 07:54:08;;;;;;;80.68;50.72;;;;;;;7.79;100.00;102470.28;4802434;29;23828;-74
2021/12/14 07:56:42;;;;;;;80.43;51.08;;;;;;;7.79;100.00;102464.06;4795608;29;20090;-73
2021/12/14 07:59:09;;;;;;;;;;;;;;;7.85;100.00;102464.28;4798476;29;20133;-73
2021/12/14 08:01:34;;;;;;;78.75;49.65;;;;;;;7.81;100.00;102468.28;4811359;29;20033;-73
2021/12/14 08:04:06;;;;;;;84.10;53.78;;;;;;;7.78;100.00;102476.63;4827422;29;20035;-73
2021/12/14 08:06:49;;;;;;;87.47;53.83;;;;;;;7.77;100.00;102472.28;4801386;29;20051;-72
2021/12/14 08:09:19;;;;;;;93.43;53.72;;;;;;;7.72;100.00;102473.72;4810135;29;20046;-72
2021/12/14 08:11:48;;;;;;;99.30;56.30;;;;;;;7.77;100.00;102477.63;4794904;29;21290;-72
2021/12/14 08:14:19;;;;;;;96.70;53.40;;;;;;;7.77;100.00;102492.91;4829795;29;20039;-72
2021/12/14 08:16:58;;;;;;;98.00;55.42;;;;;;;7.74;100.00;102483.31;4811699;29;20030;-73
2021/12/14 08:19:39;;;;;;;107.13;58.60;;;;;;;7.77;100.00;102488.38;4816884;28;20051;-72
2021/12/14 08:22:27;;;;;;;96.45;55.47;;;;;;;7.79;100.00;102491.75;4831437;29;20049;-72
2021/12/14 08:24:53;;;;;;;106.25;58.90;;;;;;;7.76;100.00;102491.22;4817504;29;21521;-73
2021/12/14 08:27:21;;;;;;;103.97;59.78;;;;;;;7.82;100.00;102491.41;4832151;29;20035;-72
2021/12/14 08:29:56;;;;;;;109.95;61.13;;;;;;;7.84;100.00;102497.47;4814942;29;20039;-72
2021/12/14 08:32:25;;;;;;;104.15;59.70;;;;;;;7.86;100.00;102497.31;4801250;29;21011;-72
2021/12/14 08:34:53;;;;;;;99.72;57.97;;;;;;;7.84;100.00;102499.31;4831493;29;20039;-72
2021/12/14 08:37:26;;;;;;;105.85;59.20;;;;;;;7.86;100.00;102500.88;4824196;28;20047;-72
2021/12/14 08:39:55;;;;;;;;;;;;;;;7.86;100.00;102503.56;4820932;29;20060;-72
2021/12/14 08:42:29;;;;;;;102.63;58.25;;;;;;;7.87;100.00;102509.75;4812064;29;20001;-73
2021/12/14 08:44:56;;;;;;;;;;;;;;;7.92;100.00;102511.97;4813877;29;20074;-73
2021/12/14 08:47:31;;;;;;;109.68;60.78;;;;;;;7.92;100.00;102510.13;4828120;29;19923;-73
2021/12/14 08:49:59;;;;;;;106.13;59.75;;;;;;;7.97;100.00;102515.00;4808654;29;20055;-73
2021/12/14 08:52:25;;;;;;;103.68;59.28;;;;;;;8.00;100.00;102503.97;4823948;29;21170;-72
2021/12/14 08:54:51;;;;;;;105.82;61.47;;;;;;;8.02;100.00;102502.84;4833544;29;20030;-72
2021/12/14 08:57:20;;;;;;;106.15;60.30;;;;;;;8.04;100.00;102497.31;4815572;29;20056;-71
2021/12/14 08:59:50;;;;;;;99.85;57.97;;;;;;;8.04;100.00;102494.63;4819622;29;20038;-72
2021/12/14 09:02:16;;;;;;;104.28;60.00;;;;;;;8.05;100.00;102490.94;4815481;29;20031;-71
2021/12/14 09:04:51;;;;;;;102.45;59.40;;;;;;;8.01;100.00;102490.41;4821324;28;20186;-72
2021/12/14 09:07:22;;;;;;;96.38;58.10;;;;;;;8.04;100.00;102495.47;4833441;29;20125;-71
2021/12/14 09:09:47;;;;;;;102.50;58.63;;;;;;;8.05;100.00;102480.22;4828536;29;20055;-71
2021/12/14 09:12:13;;;;;;;105.07;57.70;;;;;;;8.12;100.00;102481.28;4806832;29;22748;-71
2021/12/14 09:14:41;;;;;;;104.47;60.20;;;;;;;8.13;100.00;102482.94;4834657;29;20074;-71
2021/12/14 09:17:09;;;;;;;103.38;59.30;;;;;;;8.15;100.00;102480.97;4800130;29;20177;-72
2021/12/14 09:19:51;;;;;;;96.53;56.22;;;;;;;8.16;100.00;102482.63;4834572;29;20162;-72
2021/12/14 09:22:45;;;;;;;102.15;57.05;;;;;;;8.24;100.00;102485.38;4829278;29;20467;-72
2021/12/14 09:25:14;;;;;;;101.53;57.42;;;;;;;8.28;100.00;102484.09;4822616;29;20051;-73
2021/12/14 09:27:41;;;;;;;92.38;57.17;;;;;;;8.33;100.00;102489.81;4828798;29;20034;-73
2021/12/14 09:30:11;;;;;;;88.15;55.55;;;;;;;8.32;100.00;102485.44;4815749;28;20149;-72
2021/12/14 09:32:37;;;;;;;93.22;56.05;;;;;;;8.33;100.00;102486.28;4834580;29;20078;-72
2021/12/14 09:35:08;;;;;;;99.07;58.47;;;;;;;8.35;100.00;102487.81;4808932;28;20059;-72
2021/12/14 09:37:33;;;;;;;97.22;56.65;;;;;;;8.39;100.00;102485.69;4807931;29;20071;-73
2021/12/14 09:40:08;;;;;;;93.03;56.28;;;;;;;8.42;100.00;102482.66;4836965;29;20086;-73
2021/12/14 09:42:34;;;;;;;93.43;56.90;;;;;;;8.41;100.00;102480.16;4825429;28;20051;-73
2021/12/14 09:45:06;;;;;;;90.18;55.28;;;;;;;8.47;100.00;102482.22;4824235;29;20101;-73
2021/12/14 09:47:32;;;;;;;93.80;53.28;;;;;;;8.51;100.00;102476.34;4838653;29;20136;-72
2021/12/14 09:50:00;;;;;;;90.20;54.78;;;;;;;8.51;100.00;102488.94;4827452;28;21171;-73
2021/12/14 09:52:33;;;;;;;88.03;54.28;;;;;;;8.52;100.00;102486.09;4805018;29;20130;-74
2021/12/14 09:55:00;;;;;;;88.20;53.30;;;;;;;8.54;100.00;102477.88;4829101;28;20633;-73
2021/12/14 09:57:29;;;;;;;88.05;53.88;;;;;;;8.56;100.00;102486.59;4820904;29;20149;-73
2021/12/14 09:59:58;;;;;;;86.03;54.28;;;;;;;8.62;100.00;102491.34;4828013;28;20031;-74
2021/12/14 10:02:34;;;;;;;82.78;52.35;;;;;;;8.57;100.00;102491.84;4802127;28;20048;-73
2021/12/14 10:05:09;;;;;;;87.40;53.50;;;;;;;8.63;100.00;102495.72;4811811;29;20027;-73
2021/12/14 10:07:35;;;;;;;86.72;53.55;;;;;;;8.66;100.00;102491.88;4811371;29;20170;-72
2021/12/14 10:10:04;;;;;;;78.95;51.05;;;;;;;8.69;100.00;102484.34;4814073;29;20047;-73
2021/12/14 10:12:49;;;;;;;79.07;50.78;;;;;;;8.65;100.00;102493.72;4805287;29;20034;-74
2021/12/14 10:15:24;;;;;;;74.25;49.38;;;;;;;8.75;100.00;102486.38;4805588;28;20062;-74
2021/12/14 10:17:51;;;;;;;74.75;50.17;;;;;;;8.72;100.00;102494.75;4840062;28;20042;-75
2021/12/14 10:20:27;;;;;;;77.15;50.35;;;;;;;8.63;100.00;102484.13;4817664;29;20797;-73
2021/12/14 10:22:53;;;;;;;77.55;50.30;;;;;;;8.67;100.00;102497.09;4820181;29;25385;-74
2021/12/14 10:25:21;;;;;;;75.90;49.15;;;;;;;8.69;100.00;102489.72;4830834;29;20079;-74
2021/12/14 10:27:47;;;;;;;78.13;50.50;;;;;;;8.62;100.00;102494.03;4802214;28;20217;-74
2021/12/14 10:30:28;;;;;;;77.38;50.25;;;;;;;8.58;100.00;102488.13;4832688;29;21648;-74
2021/12/14 10:32:54;;;;;;;85.00;51.30;;;;;;;8.48;100.00;102491.94;4834881;28;20065;-74
2021/12/14 10:35:24;;;;;;;83.35;51.13;;;;;;;8.46;100.00;102493.94;4826386;29;20051;-74
2021/12/14 10:37:59;;;;;;;82.30;52.03;;;;;;;8.47;100.00;102495.63;4822663;29;20028;-74
2021/12/14 10:43:18;;;;;;;83.13;50.97;;;;;;;8.50;100.00;102496.16;4837090;28;20042;-72
2021/12/14 10:45:59;;;;;;;83.07;51.38;;;;;;;8.55;100.00;102503.72;4833347;29;20578;-71
2021/12/14 10:48:30;;;;;;;81.07;50.60;;;;;;;8.59;100.00;102500.56;4827037;29;21049;-72
2021/12/14 10:50:57;;;;;;;81.55;50.33;;;;;;;8.61;100.00;102492.38;4816961;29;20134;-73
2021/12/14 10:53:25;;;;;;;77.07;46.58;;;;;;;8.67;100.00;102494.41;4804024;29;23546;-74
2021/12/14 10:56:13;;;;;;;77.35;49.72;;;;;;;8.75;100.00;102497.13;4834945;29;20031;-74
2021/12/14 10:58:41;;;;;;;77.20;47.72;;;;;;;8.74;100.00;102491.91;4820841;29;20034;-73
2021/12/14 11:01:10;;;;;;;75.28;46.90;;;;;;;8.77;100.00;102491.59;4823391;28;23221;-72
2021/12/14 11:03:42;;;;;;;74.45;47.30;;;;;;;8.75;100.00;102486.38;4836430;28;20043;-73
2021/12/14 11:06:12;;;;;;;70.72;47.65;;;;;;;8.78;100.00;102488.75;4814070;29;20043;-73
2021/12/14 11:08:58;;;;;;;72.40;43.55;;;;;;;8.73;100.00;102480.31;4826773;28;20074;-73
2021/12/14 11:11:51;;;;;;;70.65;44.08;;;;;;;8.81;100.00;102488.44;4834390;28;20123;-72
2021/12/14 11:14:25;;;;;;;67.57;43.88;;;;;;;8.81;100.00;102480.38;4825302;29;20071;-72
2021/12/14 11:19:46;;;;;;;68.88;43.78;;;;;;;8.81;100.00;102474.16;4821820;29;20066;-72
2021/12/14 11:22:16;;;;;;;;;;;;;;;8.77;100.00;102475.47;4836806;28;20031;-72
2021/12/14 11:24:45;;;;;;;69.85;42.20;;;;;;;8.78;100.00;102483.38;4815573;29;19926;-72
2021/12/14 11:27:23;;;;;;;66.55;42.08;;;;;;;8.80;100.00;102481.34;4827527;29;20059;-74
2021/12/14 11:30:05;;;;;;;63.03;42.58;;;;;;;8.80;100.00;102475.97;4837027;29;20166;-72
2021/12/14 11:32:31;;;;;;;67.95;42.40;;;;;;;8.80;100.00;102491.28;4820205;28;21588;-73
2021/12/14 11:34:56;;;;;;;65.30;42.15;;;;;;;8.76;100.00;102480.00;4835685;29;23857;-72
2021/12/14 11:37:33;;;;;;;64.68;40.90;;;;;;;8.82;100.00;102483.91;4816867;29;23938;-72
2021/12/14 11:39:58;;;;;;;62.88;41.95;;;;;;;8.81;100.00;102483.06;4823803;28;20057;-72
2021/12/14 11:42:26;;;;;;;65.18;40.10;;;;;;;8.83;100.00;102481.03;4835821;29;20031;-72
2021/12/14 11:45:06;;;;;;;58.80;38.90;;;;;;;8.89;100.00;102489.47;4830282;29;20055;-72
2021/12/14 11:50:31;;;;;;;57.63;38.65;;;;;;;8.86;100.00;102485.25;4836939;29;20059;-71
2021/12/14 11:53:09;;;;;;;64.13;40.55;;;;;;;8.81;100.00;102477.69;4824722;29;22879;-73
2021/12/14 11:55:38;;;;;;;58.53;37.50;;;;;;;8.84;100.00;102476.50;4837415;28;20035;-73
2021/12/14 11:58:26;;;;;;;66.20;40.85;;;;;;;8.81;100.00;102477.69;4825556;29;20051;-75
2021/12/14 12:01:09;;;;;;;66.20;38.92;;;;;;;8.78;100.00;102483.38;4817914;29;20047;-72